Terminal Aerodrome Forecast
Issued by NWS

Home | Current Version | Previous Version | Text Only | Print | Product List | Glossary Off
Versions: 1 2 3 4 5 6 7 8 9 10 11 12 13 14 15 16 17 18

841
FTUS43 KGRB 191535 AAB
TAFATW
TAF AMD
KATW 191535Z 1916/2012 32013G19KT P6SM BKN040
     FM191900 34011G15KT P6SM BKN050
     FM200100 01007KT P6SM SKC=

USA.gov is the U.S. government's official web portal to all federal, state and local government web resources and services.